Time;durP1;ratioP1;P1;durP2;ratioP2;P2;SDS_P1;SDS_P2;PMS_P1;PMS_P2;Temp;Humidity;BMP_temperature;BMP_pressure;BME280_temperature;BME280_humidity;BME280_pressure;Samples;Min_cycle;Max_cycle;Signal;HPM_P1;HPM_P2
2022/07/20 00:02:56;;;;;;;0.80;0.65;;;19.90;49.00;22.10;94041.00;;;;10469642;28;45212;-63
2022/07/20 00:11:19;;;;;;;1.35;0.60;;;19.90;49.00;22.10;94035.00;;;;10469736;28;45218;-63
2022/07/20 00:14:00;;;;;;;1.42;0.82;;;19.90;49.00;22.10;94043.00;;;;10469113;28;45228;-63
2022/07/20 00:19:22;;;;;;;1.08;0.68;;;19.90;49.00;22.00;94060.00;;;;10472042;28;45204;-63
2022/07/20 00:24:43;;;;;;;1.25;0.75;;;19.90;48.90;22.00;94049.00;;;;10474237;28;45262;-63
2022/07/20 00:30:05;;;;;;;1.20;0.77;;;19.90;48.90;22.00;94041.00;;;;10469300;28;45301;-63
2022/07/20 00:35:27;;;;;;;1.60;0.73;;;19.90;48.90;22.00;94052.00;;;;10468748;28;45203;-63
2022/07/20 00:40:47;;;;;;;0.88;0.70;;;19.90;48.90;22.00;94065.00;;;;10468522;28;45251;-63
2022/07/20 00:46:08;;;;;;;1.40;0.80;;;19.90;48.90;22.00;94053.00;;;;10468005;28;45246;-63
2022/07/20 00:51:31;;;;;;;1.05;0.70;;;19.90;49.00;22.00;94058.00;;;;10463432;28;45235;-63
2022/07/20 00:56:52;;;;;;;1.02;0.80;;;19.90;49.00;22.00;94053.00;;;;10464610;28;45555;-63
2022/07/20 01:02:12;;;;;;;1.42;0.80;;;19.90;49.00;22.00;94065.00;;;;10475219;28;45310;-63
2022/07/20 01:07:34;;;;;;;1.10;0.80;;;19.90;49.00;22.00;94067.00;;;;10474703;28;45226;-63
2022/07/20 01:12:55;;;;;;;1.17;0.63;;;19.90;49.00;22.00;94075.00;;;;10474632;28;45207;-63
2022/07/20 01:18:16;;;;;;;1.02;0.60;;;19.90;49.00;22.00;94078.00;;;;10475108;28;45145;-62
2022/07/20 01:23:38;;;;;;;1.02;0.70;;;19.90;49.00;22.00;94076.00;;;;10474664;28;45362;-63
2022/07/20 01:28:59;;;;;;;1.30;0.70;;;19.90;49.00;22.00;94079.00;;;;10475247;28;45322;-63
2022/07/20 01:34:20;;;;;;;0.73;0.60;;;19.90;49.00;22.00;94080.00;;;;10474080;28;45228;-63
2022/07/20 01:39:41;;;;;;;1.25;0.80;;;19.80;49.00;22.00;94082.00;;;;10474690;28;45286;-63
2022/07/20 01:45:02;;;;;;;1.40;0.80;;;19.90;49.00;22.00;94083.00;;;;10473628;28;45118;-63
2022/07/20 01:50:22;;;;;;;1.17;0.80;;;19.80;48.90;22.00;94088.00;;;;10473888;28;45236;-63
2022/07/20 01:55:44;;;;;;;1.52;0.77;;;19.90;49.00;22.00;94076.00;;;;10472360;28;45222;-63
2022/07/20 02:01:05;;;;;;;1.23;0.75;;;19.80;49.00;22.00;94072.00;;;;10484570;28;45286;-63
2022/07/20 02:06:26;;;;;;;0.95;0.70;;;19.80;49.00;22.00;94081.00;;;;10472766;28;45146;-63
2022/07/20 02:11:48;;;;;;;1.23;0.75;;;19.80;49.00;22.00;94078.00;;;;10462724;28;45259;-63
2022/07/20 02:17:08;;;;;;;1.20;0.70;;;19.90;49.00;22.00;94096.00;;;;10472963;28;45411;-63
2022/07/20 02:22:29;;;;;;;0.82;0.70;;;19.80;49.00;22.00;94082.00;;;;10473050;28;45255;-63
2022/07/20 02:27:51;;;;;;;1.00;0.82;;;19.80;49.00;22.00;94089.00;;;;10472205;28;45259;-63
2022/07/20 02:33:11;;;;;;;1.95;0.80;;;19.80;49.00;22.00;94086.00;;;;10472608;28;45176;-63
2022/07/20 02:38:32;;;;;;;0.90;0.68;;;19.80;49.00;22.00;94085.00;;;;10467734;28;45186;-63
2022/07/20 02:43:53;;;;;;;0.82;0.80;;;19.80;48.90;22.00;94080.00;;;;10471544;28;45195;-63
2022/07/20 02:49:14;;;;;;;1.25;0.75;;;19.80;49.10;22.00;94076.00;;;;10472289;28;45153;-63
2022/07/20 02:54:35;;;;;;;1.52;0.82;;;19.80;49.00;21.90;94078.00;;;;10471248;28;45156;-63
2022/07/20 02:59:56;;;;;;;1.02;0.73;;;19.80;49.10;21.90;94059.00;;;;10482909;28;45221;-63
2022/07/20 03:05:17;;;;;;;1.30;0.80;;;19.80;49.10;21.90;94071.00;;;;10460225;28;45374;-63
2022/07/20 03:10:38;;;;;;;1.33;0.80;;;19.80;49.10;22.00;94084.00;;;;10471226;28;45219;-63
2022/07/20 03:16:00;;;;;;;2.10;0.90;;;19.80;49.10;21.90;94078.00;;;;10470901;28;45284;-63
2022/07/20 03:21:21;;;;;;;1.00;0.90;;;19.80;49.20;21.90;94079.00;;;;10471314;28;45168;-63
2022/07/20 03:26:41;;;;;;;0.93;0.82;;;19.80;49.20;21.90;94079.00;;;;10469936;28;45537;-63
2022/07/20 03:32:03;;;;;;;1.15;0.90;;;19.80;49.20;21.90;94091.00;;;;10470389;28;45246;-63
2022/07/20 03:37:24;;;;;;;1.75;1.00;;;19.80;49.20;21.90;94098.00;;;;10469349;28;45299;-63
2022/07/20 03:42:45;;;;;;;1.95;0.90;;;19.80;49.30;21.90;94081.00;;;;10471278;28;45223;-63
2022/07/20 03:48:07;;;;;;;1.10;0.88;;;19.80;49.30;21.90;94083.00;;;;10469732;28;45184;-63
2022/07/20 03:53:27;;;;;;;1.35;0.85;;;19.80;49.30;21.90;94080.00;;;;10469863;28;45257;-63
2022/07/20 03:58:48;;;;;;;1.25;0.98;;;19.80;49.30;21.90;94087.00;;;;10460950;28;45219;-63
2022/07/20 04:04:10;;;;;;;1.58;0.88;;;19.80;49.30;21.90;94080.00;;;;10463229;28;45242;-63
2022/07/20 04:09:47;;;;;;;1.40;0.90;;;19.80;49.30;21.90;94093.00;;;;10469577;28;45276;-63
2022/07/20 04:15:09;;;;;;;3.30;0.90;;;19.80;49.40;21.90;94091.00;;;;10469269;28;45214;-63
2022/07/20 04:20:31;;;;;;;1.13;0.90;;;19.80;49.40;21.90;94109.00;;;;10469085;28;45144;-63
2022/07/20 04:25:51;;;;;;;1.55;1.00;;;19.80;49.40;21.90;94097.00;;;;10468960;28;45214;-63
2022/07/20 04:31:12;;;;;;;1.58;1.08;;;19.80;49.40;21.90;94089.00;;;;10470064;28;45240;-62
2022/07/20 04:36:34;;;;;;;1.15;0.88;;;19.80;49.50;21.90;94097.00;;;;10470735;28;45230;-63
2022/07/20 04:41:55;;;;;;;1.30;1.00;;;19.80;49.50;21.90;94091.00;;;;10476072;28;45231;-63
2022/07/20 04:47:15;;;;;;;1.55;0.90;;;19.80;49.50;21.90;94084.00;;;;10475584;28;45126;-63
2022/07/20 04:52:38;;;;;;;1.52;1.00;;;19.80;49.60;21.90;94106.00;;;;10475858;28;45150;-63
2022/07/20 04:57:58;;;;;;;0.88;0.85;;;19.80;49.50;21.90;94130.00;;;;10473524;28;45238;-63
2022/07/20 05:03:19;;;;;;;2.13;1.30;;;19.80;49.50;21.90;94123.00;;;;10482451;28;45175;-63
2022/07/20 05:08:41;;;;;;;1.67;1.10;;;19.80;49.60;21.90;94124.00;;;;10474675;28;45221;-63
2022/07/20 05:14:01;;;;;;;1.27;0.98;;;19.80;49.60;21.90;94119.00;;;;10470219;28;45346;-63
2022/07/20 05:19:22;;;;;;;1.75;0.90;;;19.80;49.60;21.90;94117.00;;;;10472005;28;45346;-63
2022/07/20 05:24:44;;;;;;;1.23;1.00;;;19.80;49.60;21.90;94138.00;;;;10474933;28;45257;-63
2022/07/20 05:30:06;;;;;;;1.08;0.90;;;19.80;49.60;21.90;94142.00;;;;10474253;28;45176;-63
2022/07/20 05:35:27;;;;;;;1.27;0.88;;;19.80;49.60;21.90;94135.00;;;;10474401;28;45153;-63
2022/07/20 05:40:49;;;;;;;1.77;0.93;;;19.80;49.60;21.90;94143.00;;;;10461836;28;45212;-63
2022/07/20 05:46:10;;;;;;;1.65;1.00;;;19.80;49.60;21.90;94159.00;;;;10472966;28;45231;-63
2022/07/20 05:51:30;;;;;;;1.25;1.00;;;19.80;49.70;21.90;94143.00;;;;10472943;28;45168;-63
2022/07/20 05:56:52;;;;;;;1.80;0.93;;;19.80;49.70;21.90;94153.00;;;;10473246;28;45440;-63
2022/07/20 06:02:13;;;;;;;1.73;0.85;;;19.80;49.70;21.90;94153.00;;;;10482300;28;45162;-63
2022/07/20 06:07:33;;;;;;;1.20;1.10;;;19.80;49.70;21.90;94154.00;;;;10473201;28;45143;-63
2022/07/20 06:12:55;;;;;;;1.55;1.05;;;19.80;49.70;21.90;94162.00;;;;10474595;28;45287;-63
2022/07/20 06:18:16;;;;;;;1.73;1.10;;;19.80;49.70;21.90;94173.00;;;;10479357;28;45139;-63
2022/07/20 06:23:36;;;;;;;1.60;1.20;;;19.80;49.70;21.80;94167.00;;;;10479076;28;45203;-63
2022/07/20 06:28:58;;;;;;;1.80;1.20;;;19.80;50.00;21.80;94171.00;;;;10478424;28;45187;-63
2022/07/20 06:34:19;;;;;;;1.40;1.10;;;19.70;50.10;21.80;94171.00;;;;10465521;28;45301;-64
2022/07/20 06:39:40;;;;;;;1.10;1.00;;;19.70;50.20;21.80;94167.00;;;;10469941;28;45266;-63
2022/07/20 06:45:02;;;;;;;1.58;1.23;;;19.70;50.20;21.80;94164.00;;;;10469265;28;45299;-63
2022/07/20 06:50:23;;;;;;;2.30;1.40;;;19.70;50.20;21.80;94166.00;;;;10490660;28;45307;-63
2022/07/20 06:55:44;;;;;;;1.70;1.30;;;19.70;50.30;21.80;94179.00;;;;10472854;28;45194;-63
2022/07/20 07:01:07;;;;;;;1.75;1.25;;;19.70;50.20;21.80;94178.00;;;;10481076;28;45317;-63
2022/07/20 07:06:28;;;;;;;1.63;1.10;;;19.70;50.30;21.80;94183.00;;;;10484395;28;45556;-63
2022/07/20 07:11:49;;;;;;;1.75;1.33;;;19.70;50.20;21.80;94166.00;;;;10462417;28;45228;-63
2022/07/20 07:17:11;;;;;;;2.45;1.40;;;19.70;50.20;21.90;94176.00;;;;10472479;28;45278;-63
2022/07/20 07:22:34;;;;;;;2.22;1.45;;;19.70;50.10;21.80;94172.00;;;;10472930;28;45324;-62
2022/07/20 07:27:55;;;;;;;2.80;1.42;;;19.70;50.30;21.90;94190.00;;;;10463848;28;45329;-61
2022/07/20 07:33:17;;;;;;;2.50;1.20;;;19.80;50.20;21.90;94181.00;;;;10469267;28;45165;-60
2022/07/20 07:38:38;;;;;;;3.95;1.77;;;19.80;50.20;22.00;94199.00;;;;10471439;28;45311;-63
2022/07/20 07:43:58;;;;;;;4.82;1.60;;;19.80;50.20;22.00;94191.00;;;;10466602;28;45438;-61
2022/07/20 07:49:20;;;;;;;3.33;1.90;;;19.90;50.20;22.00;94201.00;;;;10466737;28;45294;-61
2022/07/20 07:54:40;;;;;;;3.05;1.85;;;19.90;50.20;22.00;94208.00;;;;10466303;28;45286;-60
2022/07/20 08:00:02;;;;;;;3.40;1.90;;;19.90;50.30;22.00;94201.00;;;;10466330;28;45505;-61
2022/07/20 08:05:24;;;;;;;3.20;2.00;;;19.90;50.30;22.10;94202.00;;;;10466310;28;45243;-62
2022/07/20 08:10:46;;;;;;;3.10;1.80;;;19.90;50.30;22.10;94187.00;;;;10469949;28;45400;-61
2022/07/20 08:16:07;;;;;;;2.53;1.90;;;20.00;50.40;22.10;94204.00;;;;10472943;28;45325;-60
2022/07/20 08:21:29;;;;;;;2.28;1.70;;;20.00;50.30;22.10;94197.00;;;;10470664;28;45141;-61
2022/07/20 08:26:50;;;;;;;3.42;1.92;;;20.00;50.30;22.10;94218.00;;;;10474973;28;45257;-61
2022/07/20 08:32:11;;;;;;;4.82;2.03;;;20.00;50.40;22.10;94214.00;;;;10475785;28;45176;-61
2022/07/20 08:37:33;;;;;;;3.17;2.30;;;20.00;50.40;22.10;94199.00;;;;10475586;28;45266;-61
2022/07/20 08:42:54;;;;;;;3.05;2.05;;;20.00;50.40;22.20;94220.00;;;;10476980;28;45226;-61
2022/07/20 08:48:18;;;;;;;3.92;2.10;;;20.00;50.50;22.10;94209.00;;;;10475896;28;45540;-60
2022/07/20 08:53:40;;;;;;;2.78;2.13;;;20.10;50.30;22.10;94214.00;;;;10474546;28;45580;-60
2022/07/20 08:59:01;;;;;;;2.85;2.00;;;20.00;50.40;22.10;94198.00;;;;10465181;28;45255;-60
2022/07/20 09:04:21;;;;;;;3.42;2.25;;;20.00;50.60;22.10;94206.00;;;;10483231;28;45517;-60
2022/07/20 09:09:43;;;;;;;2.97;2.10;;;20.00;50.70;22.00;94215.00;;;;10473057;28;45259;-59
2022/07/20 09:15:05;;;;;;;2.72;2.13;;;19.90;50.90;22.00;94215.00;;;;10473990;28;45215;-59
2022/07/20 09:20:29;;;;;;;2.15;1.90;;;19.90;51.00;22.00;94214.00;;;;10474323;28;45264;-60
2022/07/20 09:25:56;;;;;;;2.58;1.90;;;19.90;51.00;22.00;94213.00;;;;10474469;28;45577;-60
2022/07/20 09:31:20;;;;;;;4.07;2.03;;;19.90;50.90;22.00;94228.00;;;;10473503;28;45183;-60
2022/07/20 09:36:43;;;;;;;2.28;1.88;;;19.90;51.00;22.00;94224.00;;;;10473067;28;45300;-60
2022/07/20 09:42:06;;;;;;;2.80;2.03;;;19.90;51.10;22.00;94220.00;;;;10470829;28;44713;-58
2022/07/20 09:47:27;;;;;;;2.78;2.20;;;19.90;51.10;22.00;94243.00;;;;10483898;28;45429;-59
2022/07/20 09:52:47;;;;;;;2.92;2.10;;;19.90;51.20;22.00;94247.00;;;;10471193;28;45300;-59
2022/07/20 09:58:11;;;;;;;3.03;2.20;;;19.90;51.30;22.00;94249.00;;;;10492227;28;45366;-60
2022/07/20 10:03:31;;;;;;;2.65;2.20;;;19.90;51.30;22.10;94242.00;;;;10479476;28;45303;-61
2022/07/20 10:08:53;;;;;;;2.75;2.33;;;20.00;51.10;22.10;94246.00;;;;10471849;28;45164;-60
2022/07/20 10:14:19;;;;;;;2.92;2.22;;;20.00;51.10;22.10;94254.00;;;;10472335;28;45430;-62
2022/07/20 10:19:46;;;;;;;2.65;2.15;;;20.00;51.10;22.10;94266.00;;;;10472942;28;45354;-62
2022/07/20 10:25:18;;;;;;;3.53;2.28;;;20.00;51.10;22.10;94255.00;;;;10472798;28;45270;-62
2022/07/20 10:30:52;;;;;;;3.10;2.17;;;20.00;51.40;22.10;94256.00;;;;10472552;28;45270;-62
2022/07/20 10:42:23;;;;;;;3.17;2.30;;;20.00;51.60;22.10;94271.00;;;;10471722;28;45196;-62
2022/07/20 10:47:48;;;;;;;2.63;2.25;;;20.00;51.80;22.10;94254.00;;;;10471606;28;45866;-62
2022/07/20 10:53:37;;;;;;;3.25;2.40;;;20.00;51.90;22.10;94239.00;;;;10471625;28;45222;-61
2022/07/20 10:59:01;;;;;;;2.95;2.47;;;20.00;52.10;22.10;94239.00;;;;10456269;28;45282;-62
2022/07/20 11:04:23;;;;;;;3.40;2.70;;;20.00;52.10;22.20;94231.00;;;;10467964;28;45725;-61
2022/07/20 11:09:44;;;;;;;4.85;2.63;;;20.00;52.30;22.20;94227.00;;;;10470946;28;45358;-61
2022/07/20 11:15:06;;;;;;;3.90;2.90;;;20.10;52.40;22.30;94205.00;;;;10470642;28;45380;-61
2022/07/20 11:20:28;;;;;;;4.60;3.42;;;20.20;52.90;22.30;94185.00;;;;10467445;28;45250;-61
2022/07/20 11:25:53;;;;;;;5.55;3.42;;;20.20;53.50;22.30;94170.00;;;;10467812;28;45615;-62
2022/07/20 11:31:14;;;;;;;5.40;4.03;;;20.20;53.30;22.40;94202.00;;;;10467293;28;45287;-61
2022/07/20 11:36:36;;;;;;;7.03;4.13;;;20.20;53.50;22.40;94213.00;;;;10466691;28;45343;-60
2022/07/20 11:41:58;;;;;;;6.97;4.18;;;20.30;54.30;22.40;94191.00;;;;10467660;28;45392;-62
2022/07/20 11:47:18;;;;;;;6.53;4.10;;;20.30;53.90;22.40;94199.00;;;;10466866;28;45512;-61
2022/07/20 11:52:42;;;;;;;5.75;4.03;;;20.30;54.10;22.40;94193.00;;;;10466729;28;45377;-62
2022/07/20 11:58:03;;;;;;;6.10;3.83;;;20.30;53.90;22.50;94180.00;;;;10465839;28;45280;-62
2022/07/20 12:03:29;;;;;;;5.43;3.97;;;20.30;53.40;22.50;94181.00;;;;10476132;28;44666;-62
2022/07/20 12:09:06;;;;;;;5.47;4.07;;;20.40;53.70;22.50;94172.00;;;;10467116;28;45279;-62
2022/07/20 12:14:33;;;;;;;5.32;3.90;;;20.40;53.50;22.50;94180.00;;;;10469354;28;45301;-62
2022/07/20 12:19:56;;;;;;;5.50;3.90;;;20.40;53.60;22.60;94185.00;;;;10470823;28;45159;-63
2022/07/20 12:25:18;;;;;;;5.57;3.97;;;20.40;52.90;22.50;94161.00;;;;10468972;28;45186;-62
2022/07/20 12:30:41;;;;;;;4.70;3.50;;;20.40;52.90;22.60;94155.00;;;;10473941;28;45249;-62
2022/07/20 12:36:06;;;;;;;5.00;3.70;;;20.40;52.60;22.60;94166.00;;;;10473551;28;45254;-61
2022/07/20 12:41:28;;;;;;;4.88;3.38;;;20.40;52.50;22.60;94167.00;;;;10473575;28;45407;-62
2022/07/20 12:46:49;;;;;;;5.13;3.20;;;20.50;52.30;22.70;94157.00;;;;10472876;28;45176;-62
2022/07/20 12:52:10;;;;;;;6.60;3.33;;;20.50;52.00;22.70;94138.00;;;;10460304;28;45296;-62
2022/07/20 12:57:32;;;;;;;5.30;3.28;;;20.60;51.90;22.80;94138.00;;;;10475163;28;45373;-62
2022/07/20 13:02:53;;;;;;;6.90;3.45;;;20.60;51.90;22.80;94128.00;;;;10492337;28;45263;-61
2022/07/20 13:08:13;;;;;;;6.35;3.40;;;20.60;51.90;22.80;94116.00;;;;10479016;28;45219;-61
2022/07/20 13:13:35;;;;;;;4.90;3.17;;;20.60;51.70;22.80;94133.00;;;;10475005;28;45222;-61
2022/07/20 13:18:56;;;;;;;3.92;2.90;;;20.70;51.50;22.80;94113.00;;;;10475186;28;45226;-61
2022/07/20 13:24:17;;;;;;;5.07;3.25;;;20.70;51.50;22.80;94124.00;;;;10473579;28;45155;-61
2022/07/20 13:29:39;;;;;;;6.03;3.50;;;20.60;51.50;22.70;94126.00;;;;10474891;28;45131;-61
2022/07/20 13:35:00;;;;;;;4.20;3.20;;;20.60;51.50;22.70;94124.00;;;;10473395;28;45247;-61
2022/07/20 13:40:20;;;;;;;5.63;3.30;;;20.60;51.50;22.60;94133.00;;;;10473726;28;45212;-61
2022/07/20 13:45:42;;;;;;;4.45;3.17;;;20.50;51.50;22.60;94094.00;;;;10473464;28;45520;-61
2022/07/20 13:51:03;;;;;;;4.57;3.28;;;20.50;51.60;22.60;94093.00;;;;10473242;28;45233;-61
2022/07/20 13:56:26;;;;;;;5.22;3.42;;;20.50;51.70;22.60;94097.00;;;;10472337;28;45182;-62
2022/07/20 14:01:47;;;;;;;4.45;3.05;;;20.50;51.80;22.60;94088.00;;;;10466687;28;45251;-61
2022/07/20 14:07:09;;;;;;;4.28;3.20;;;20.40;51.80;22.60;94086.00;;;;10468040;28;45226;-61
2022/07/20 14:12:29;;;;;;;4.43;2.90;;;20.40;51.80;22.50;94075.00;;;;10473359;28;45340;-61
2022/07/20 14:17:51;;;;;;;4.47;3.00;;;20.40;51.80;22.50;94069.00;;;;10471798;28;45379;-61
2022/07/20 14:23:12;;;;;;;3.60;2.70;;;20.40;51.80;22.50;94069.00;;;;10479997;28;45258;-61
2022/07/20 14:28:33;;;;;;;4.40;3.20;;;20.40;51.80;22.50;94053.00;;;;10473219;28;45334;-64
2022/07/20 14:33:55;;;;;;;3.13;2.60;;;20.40;52.00;22.60;94035.00;;;;10472968;28;45188;-64
2022/07/20 14:39:15;;;;;;;3.45;2.90;;;20.40;51.70;22.60;94022.00;;;;10472632;28;45234;-67
2022/07/20 14:44:36;;;;;;;3.67;2.63;;;20.40;51.90;22.60;94017.00;;;;10471651;28;45255;-63
2022/07/20 14:49:57;;;;;;;4.20;2.80;;;20.50;51.80;22.60;94018.00;;;;10481684;28;45325;-61
2022/07/20 14:55:18;;;;;;;5.22;3.05;;;20.50;51.90;22.60;94053.00;;;;10467859;28;45259;-62
2022/07/20 15:00:39;;;;;;;4.20;3.30;;;20.50;51.90;22.60;94073.00;;;;10468825;28;45450;-62
2022/07/20 15:06:01;;;;;;;5.18;3.08;;;20.50;52.10;22.60;94063.00;;;;10464271;28;45467;-61
2022/07/20 15:11:22;;;;;;;3.45;2.60;;;20.50;52.20;22.60;94057.00;;;;10466302;28;45611;-62
2022/07/20 15:16:42;;;;;;;4.38;2.85;;;20.50;52.20;22.60;94096.00;;;;10467381;28;45201;-63
2022/07/20 15:22:04;;;;;;;4.60;3.45;;;20.50;52.30;22.60;94078.00;;;;10463879;28;45254;-64
2022/07/20 15:27:25;;;;;;;3.58;2.70;;;20.50;52.30;22.60;94095.00;;;;10466192;28;45323;-62
2022/07/20 15:32:45;;;;;;;4.53;2.75;;;20.50;52.40;22.60;94067.00;;;;10467865;28;45623;-64
2022/07/20 15:38:07;;;;;;;5.03;2.97;;;20.50;52.60;22.60;94069.00;;;;10467462;28;45335;-61
2022/07/20 15:43:30;;;;;;;4.32;3.00;;;20.50;52.60;22.60;94099.00;;;;10467840;28;45246;-63
2022/07/20 15:48:51;;;;;;;4.72;3.30;;;20.50;52.70;22.70;94085.00;;;;10467614;28;45588;-63
2022/07/20 15:54:13;;;;;;;4.63;3.20;;;20.50;52.90;22.80;94064.00;;;;10466982;28;45310;-62
2022/07/20 15:59:33;;;;;;;5.28;3.80;;;20.60;52.60;22.80;94084.00;;;;10467127;28;45515;-62
2022/07/20 16:04:54;;;;;;;5.93;4.80;;;20.60;52.60;22.80;94089.00;;;;10486449;28;45261;-61
2022/07/20 16:10:16;;;;;;;8.38;6.10;;;20.60;52.60;22.80;94081.00;;;;10465785;28;45329;-61
2022/07/20 16:15:38;;;;;;;7.65;6.10;;;20.70;52.70;22.60;94088.00;;;;10463633;28;45268;-60
2022/07/20 16:20:59;;;;;;;7.95;5.80;;;20.60;53.20;22.70;94049.00;;;;10469382;28;45241;-63
2022/07/20 16:26:21;;;;;;;9.05;6.10;;;20.50;53.10;22.70;93990.00;;;;10468374;28;45231;-61
2022/07/20 16:31:42;;;;;;;7.60;5.53;;;20.60;53.30;22.70;94078.00;;;;10471432;28;45097;-61
2022/07/20 16:37:02;;;;;;;9.80;5.78;;;20.60;53.30;22.70;94084.00;;;;10475756;28;45199;-61
2022/07/20 16:42:24;;;;;;;7.70;5.45;;;20.50;55.10;22.70;94096.00;;;;10476186;28;45261;-61
2022/07/20 16:47:45;;;;;;;7.93;5.85;;;20.50;55.00;22.70;94083.00;;;;10475858;28;45549;-61
2022/07/20 16:53:06;;;;;;;6.95;5.57;;;20.50;55.50;22.70;94069.00;;;;10475354;28;45272;-61
2022/07/20 16:58:28;;;;;;;7.95;5.70;;;20.50;56.00;22.70;94032.00;;;;10473008;28;45200;-62
2022/07/20 17:03:48;;;;;;;6.75;5.32;;;20.50;57.10;22.70;93989.00;;;;10480622;28;45787;-61
2022/07/20 17:09:09;;;;;;;7.60;5.47;;;20.50;57.60;22.70;94000.00;;;;10474435;28;45269;-62
2022/07/20 17:14:31;;;;;;;7.22;5.43;;;20.60;56.60;22.70;94049.00;;;;10472321;28;45257;-61
2022/07/20 17:19:51;;;;;;;6.93;5.38;;;20.60;56.70;22.70;94058.00;;;;10472921;28;44730;-62
2022/07/20 17:25:12;;;;;;;8.32;5.72;;;20.60;56.90;22.70;94072.00;;;;10473324;28;45483;-61
2022/07/20 17:30:35;;;;;;;8.13;5.78;;;20.50;56.50;22.60;94095.00;;;;10471997;28;45407;-61
2022/07/20 17:35:56;;;;;;;7.72;5.45;;;20.50;56.30;22.60;94098.00;;;;10472856;28;45478;-62
2022/07/20 17:41:16;;;;;;;10.10;5.80;;;20.50;56.80;22.70;94109.00;;;;10473076;28;45196;-61
2022/07/20 17:46:41;;;;;;;7.68;5.20;;;20.50;56.70;22.60;94093.00;;;;10472811;28;45281;-61
2022/07/20 17:52:01;;;;;;;7.28;5.57;;;20.40;56.80;22.60;94070.00;;;;10473859;28;45460;-61
2022/07/20 17:57:22;;;;;;;8.00;5.72;;;20.40;56.30;22.60;94061.00;;;;10474653;28;45415;-61
2022/07/20 18:02:44;;;;;;;7.68;5.57;;;20.40;56.40;22.60;94079.00;;;;10479191;28;45242;-61
2022/07/20 18:08:06;;;;;;;7.57;5.22;;;20.40;56.50;22.50;94118.00;;;;10485878;28;45264;-62
2022/07/20 18:13:26;;;;;;;9.05;5.43;;;20.40;57.70;22.60;94153.00;;;;10472267;28;45612;-61
2022/07/20 18:18:50;;;;;;;7.65;5.35;;;20.40;56.00;22.50;94183.00;;;;10465414;28;45438;-62
2022/07/20 18:24:11;;;;;;;7.35;5.50;;;20.40;56.80;22.60;94193.00;;;;10471403;28;45129;-62
2022/07/20 18:29:31;;;;;;;9.07;6.00;;;20.40;56.50;22.50;94188.00;;;;10472418;28;45192;-60
2022/07/20 18:34:53;;;;;;;7.85;5.68;;;20.30;57.50;22.60;94198.00;;;;10471642;28;45176;-61
2022/07/20 18:40:14;;;;;;;9.23;5.78;;;20.40;56.30;22.50;94196.00;;;;10472004;28;45193;-61
2022/07/20 18:51:15;;;;;;;8.20;5.75;;;20.40;56.80;22.50;94101.00;;;;10471096;28;45182;-60
2022/07/20 18:56:35;;;;;;;9.65;5.68;;;20.40;57.20;22.50;94189.00;;;;10465538;28;45317;-60
2022/07/20 19:01:55;;;;;;;8.77;6.10;;;20.30;58.40;22.50;94308.00;;;;10458780;28;45200;-61
2022/07/20 19:07:17;;;;;;;8.57;5.55;;;20.30;59.00;22.50;94338.00;;;;10468167;28;45352;-61
2022/07/20 19:12:38;;;;;;;8.38;5.88;;;20.40;62.00;22.50;94359.00;;;;10470480;28;45262;-61
2022/07/20 19:17:58;;;;;;;8.52;5.63;;;20.40;62.80;22.40;94361.00;;;;10468973;28;45217;-62
2022/07/20 19:23:20;;;;;;;7.43;5.25;;;20.30;62.80;22.40;94367.00;;;;10467913;28;45303;-62
2022/07/20 19:28:41;;;;;;;7.50;5.60;;;20.20;63.10;22.40;94348.00;;;;10465731;28;45251;-61
2022/07/20 19:34:02;;;;;;;7.70;4.93;;;20.30;62.20;22.40;94354.00;;;;10469764;28;45311;-61
2022/07/20 19:39:24;;;;;;;8.07;4.97;;;20.30;62.20;22.40;94335.00;;;;10470095;28;45172;-61
2022/07/20 19:44:45;;;;;;;6.50;4.60;;;20.40;63.20;22.40;94319.00;;;;10469499;28;45276;-61
2022/07/20 19:50:08;;;;;;;6.25;4.45;;;20.30;63.40;22.40;94283.00;;;;10469432;28;45157;-61
2022/07/20 19:55:30;;;;;;;7.45;4.50;;;20.30;64.00;22.40;94295.00;;;;10469133;28;45154;-61
2022/07/20 20:00:50;;;;;;;5.63;4.35;;;20.30;65.60;22.40;94249.00;;;;10469318;28;45253;-61
2022/07/20 20:06:11;;;;;;;7.40;4.25;;;20.20;65.60;22.30;94253.00;;;;10483615;28;45282;-61
2022/07/20 20:11:32;;;;;;;7.45;4.40;;;20.20;66.30;22.30;94255.00;;;;10469393;28;45206;-59
2022/07/20 20:16:55;;;;;;;6.50;4.63;;;20.20;66.10;22.30;94299.00;;;;10468325;28;45406;-61
2022/07/20 20:22:16;;;;;;;6.65;4.40;;;20.20;65.70;22.30;94301.00;;;;10468802;28;45250;-61
2022/07/20 20:27:38;;;;;;;6.45;4.35;;;20.20;66.40;22.30;94316.00;;;;10467365;28;45228;-61
2022/07/20 20:32:59;;;;;;;5.95;4.30;;;20.20;65.90;22.30;94329.00;;;;10468853;28;45164;-61
2022/07/20 20:38:19;;;;;;;5.43;4.10;;;20.20;65.20;22.30;94335.00;;;;10468315;28;45242;-62
2022/07/20 20:43:41;;;;;;;5.70;4.20;;;20.10;64.60;22.20;94316.00;;;;10467856;28;45431;-61
2022/07/20 20:49:03;;;;;;;6.18;4.47;;;20.20;64.50;22.30;94313.00;;;;10468599;28;45233;-61
2022/07/20 20:54:24;;;;;;;6.90;4.80;;;20.20;64.70;22.30;94293.00;;;;10468210;28;45244;-61
2022/07/20 20:59:46;;;;;;;6.40;4.43;;;20.10;65.80;22.30;94316.00;;;;10467439;28;45222;-61
2022/07/20 21:05:08;;;;;;;6.35;4.72;;;20.20;66.50;22.20;94313.00;;;;10482702;28;45405;-60
2022/07/20 21:10:28;;;;;;;7.20;4.78;;;20.20;66.40;22.20;94316.00;;;;10467861;28;45242;-61
2022/07/20 21:15:50;;;;;;;6.93;4.60;;;20.10;66.50;22.20;94315.00;;;;10467552;28;45299;-61
2022/07/20 21:21:11;;;;;;;7.40;4.65;;;20.10;66.20;22.20;94340.00;;;;10473481;28;45177;-61
2022/07/20 21:26:32;;;;;;;8.35;4.15;;;20.10;65.80;22.20;94330.00;;;;10473629;28;45279;-61
2022/07/20 21:31:54;;;;;;;6.38;4.13;;;20.10;65.30;22.20;94338.00;;;;10473428;28;45073;-61
2022/07/20 21:37:15;;;;;;;6.40;4.30;;;20.00;65.10;22.20;94334.00;;;;10473702;28;45240;-61
2022/07/20 21:42:35;;;;;;;5.63;4.45;;;20.10;65.00;22.20;94313.00;;;;10474853;28;45159;-61
2022/07/20 21:47:59;;;;;;;7.20;4.97;;;20.10;65.20;22.20;94338.00;;;;10473317;28;45231;-60
2022/07/20 21:53:20;;;;;;;6.88;4.60;;;20.10;65.20;22.20;94348.00;;;;10473417;28;45204;-61
2022/07/20 21:58:40;;;;;;;7.50;4.90;;;20.10;65.20;22.10;94335.00;;;;10472720;28;45371;-61
2022/07/20 22:04:02;;;;;;;7.70;5.22;;;20.00;65.40;22.10;94347.00;;;;10481254;28;45298;-61
2022/07/20 22:09:23;;;;;;;7.30;4.70;;;20.00;64.80;22.10;94355.00;;;;10476835;28;45235;-60
2022/07/20 22:14:43;;;;;;;7.53;4.70;;;20.00;65.20;22.20;94345.00;;;;10472276;28;45274;-61
2022/07/20 22:20:09;;;;;;;6.35;4.65;;;20.00;65.40;22.20;94318.00;;;;10472768;28;45308;-61
2022/07/20 22:25:30;;;;;;;5.82;4.40;;;20.00;65.90;22.10;94353.00;;;;10472323;28;45128;-61
2022/07/20 22:30:51;;;;;;;6.80;4.30;;;20.00;65.60;22.10;94376.00;;;;10471807;28;45247;-61
2022/07/20 22:36:12;;;;;;;6.38;4.25;;;20.00;65.80;22.10;94382.00;;;;10471388;28;45165;-61
2022/07/20 22:41:33;;;;;;;5.78;4.22;;;20.00;66.00;22.10;94360.00;;;;10471951;28;45196;-61
2022/07/20 22:46:54;;;;;;;5.00;4.10;;;20.00;65.40;22.10;94324.00;;;;10472413;28;45468;-59
2022/07/20 22:52:15;;;;;;;6.88;3.97;;;20.00;65.80;22.10;94345.00;;;;10472088;28;45184;-61
2022/07/20 22:57:43;;;;;;;6.85;3.40;;;20.00;66.50;22.10;94343.00;;;;10470384;28;45251;-60
2022/07/20 23:03:04;;;;;;;3.92;2.75;;;20.00;66.30;22.10;94341.00;;;;10479189;28;45161;-61
2022/07/20 23:08:26;;;;;;;4.60;3.08;;;20.00;65.80;22.20;94347.00;;;;10478924;28;45176;-61
2022/07/20 23:13:46;;;;;;;5.88;3.28;;;20.00;64.70;22.20;94341.00;;;;10472019;28;45118;-61
2022/07/20 23:19:07;;;;;;;4.70;2.83;;;20.00;64.00;22.20;94355.00;;;;10470844;28;45144;-60
2022/07/20 23:24:29;;;;;;;3.40;2.40;;;20.00;63.80;22.10;94339.00;;;;10470361;28;45337;-61
2022/07/20 23:29:49;;;;;;;2.75;2.40;;;20.00;64.10;22.20;94336.00;;;;10469728;28;45271;-61
2022/07/20 23:35:11;;;;;;;3.30;2.35;;;20.00;63.70;22.20;94335.00;;;;10470177;28;45246;-61
2022/07/20 23:40:33;;;;;;;2.90;2.17;;;20.10;63.40;22.10;94349.00;;;;10469398;28;45287;-59
2022/07/20 23:45:54;;;;;;;3.55;2.05;;;20.00;65.00;22.20;94363.00;;;;10469301;28;45248;-61